sensor_id;sensor_type;location;lat;lon;timestamp;temperature;humidity
32811;DHT22;65470;47.324;8.548;2023-04-19T00:00:39;10.90;99.90
32811;DHT22;65470;47.324;8.548;2023-04-19T00:03:06;10.90;99.90
32811;DHT22;65470;47.324;8.548;2023-04-19T00:05:32;10.90;99.90
32811;DHT22;65470;47.324;8.548;2023-04-19T00:07:57;10.90;99.90
32811;DHT22;65470;47.324;8.548;2023-04-19T00:10:23;11.00;99.90
32811;DHT22;65470;47.324;8.548;2023-04-19T00:12:49;11.10;99.90
32811;DHT22;65470;47.324;8.548;2023-04-19T00:15:15;11.20;99.90
32811;DHT22;65470;47.324;8.548;2023-04-19T00:17:40;11.20;99.90
32811;DHT22;65470;47.324;8.548;2023-04-19T00:20:06;11.20;99.90
32811;DHT22;65470;47.324;8.548;2023-04-19T00:22:33;11.30;99.90
32811;DHT22;65470;47.324;8.548;2023-04-19T00:24:58;11.30;99.90
32811;DHT22;65470;47.324;8.548;2023-04-19T00:27:24;11.30;99.90
32811;DHT22;65470;47.324;8.548;2023-04-19T00:29:50;11.40;99.90
32811;DHT22;65470;47.324;8.548;2023-04-19T00:32:15;11.40;99.90
32811;DHT22;65470;47.324;8.548;2023-04-19T00:34:41;11.50;99.90
32811;DHT22;65470;47.324;8.548;2023-04-19T00:37:10;11.50;99.90
32811;DHT22;65470;47.324;8.548;2023-04-19T00:39:36;11.60;99.90
32811;DHT22;65470;47.324;8.548;2023-04-19T00:42:01;11.50;99.90
32811;DHT22;65470;47.324;8.548;2023-04-19T00:44:27;11.50;99.90
32811;DHT22;65470;47.324;8.548;2023-04-19T00:46:54;11.50;99.90
32811;DHT22;65470;47.324;8.548;2023-04-19T00:49:22;11.60;99.90
32811;DHT22;65470;47.324;8.548;2023-04-19T00:51:49;11.60;99.90
32811;DHT22;65470;47.324;8.548;2023-04-19T00:54:16;11.60;99.90
32811;DHT22;65470;47.324;8.548;2023-04-19T00:56:42;11.70;99.90
32811;DHT22;65470;47.324;8.548;2023-04-19T00:59:08;11.70;99.90
32811;DHT22;65470;47.324;8.548;2023-04-19T01:01:34;11.70;99.90
32811;DHT22;65470;47.324;8.548;2023-04-19T01:04:00;11.80;99.90
32811;DHT22;65470;47.324;8.548;2023-04-19T01:06:27;11.70;99.90
32811;DHT22;65470;47.324;8.548;2023-04-19T01:08:54;11.80;99.90
32811;DHT22;65470;47.324;8.548;2023-04-19T01:11:21;11.80;99.90
32811;DHT22;65470;47.324;8.548;2023-04-19T01:13:47;11.80;99.90
32811;DHT22;65470;47.324;8.548;2023-04-19T01:16:12;11.80;99.90
32811;DHT22;65470;47.324;8.548;2023-04-19T01:18:38;11.70;99.90
32811;DHT22;65470;47.324;8.548;2023-04-19T01:21:06;11.70;99.90
32811;DHT22;65470;47.324;8.548;2023-04-19T01:23:31;11.70;99.90
32811;DHT22;65470;47.324;8.548;2023-04-19T01:25:57;11.70;99.90
32811;DHT22;65470;47.324;8.548;2023-04-19T01:28:23;11.70;99.90
32811;DHT22;65470;47.324;8.548;2023-04-19T01:30:48;11.70;99.90
32811;DHT22;65470;47.324;8.548;2023-04-19T01:33:15;11.70;99.90
32811;DHT22;65470;47.324;8.548;2023-04-19T01:35:41;11.70;99.90
32811;DHT22;65470;47.324;8.548;2023-04-19T01:38:07;11.70;99.90
32811;DHT22;65470;47.324;8.548;2023-04-19T01:40:32;11.70;99.90
32811;DHT22;65470;47.324;8.548;2023-04-19T01:42:58;11.70;99.90
32811;DHT22;65470;47.324;8.548;2023-04-19T01:45:24;11.70;99.90
32811;DHT22;65470;47.324;8.548;2023-04-19T01:47:50;11.70;99.90
32811;DHT22;65470;47.324;8.548;2023-04-19T01:50:16;11.60;99.90
32811;DHT22;65470;47.324;8.548;2023-04-19T01:52:42;11.60;99.90
32811;DHT22;65470;47.324;8.548;2023-04-19T01:55:08;11.70;99.90
32811;DHT22;65470;47.324;8.548;2023-04-19T01:57:33;11.70;99.90
32811;DHT22;65470;47.324;8.548;2023-04-19T02:00:00;11.70;99.90
32811;DHT22;65470;47.324;8.548;2023-04-19T02:02:56;11.70;99.90
32811;DHT22;65470;47.324;8.548;2023-04-19T02:05:22;11.70;99.90
32811;DHT22;65470;47.324;8.548;2023-04-19T02:07:48;11.60;99.90
32811;DHT22;65470;47.324;8.548;2023-04-19T02:10:13;11.60;99.90
32811;DHT22;65470;47.324;8.548;2023-04-19T02:12:39;11.60;99.90
32811;DHT22;65470;47.324;8.548;2023-04-19T02:15:05;11.60;99.90
32811;DHT22;65470;47.324;8.548;2023-04-19T02:17:31;11.60;99.90
32811;DHT22;65470;47.324;8.548;2023-04-19T02:19:57;11.70;99.90
32811;DHT22;65470;47.324;8.548;2023-04-19T02:22:22;11.70;99.90
32811;DHT22;65470;47.324;8.548;2023-04-19T02:24:51;11.70;99.90
32811;DHT22;65470;47.324;8.548;2023-04-19T02:27:17;11.60;99.90
32811;DHT22;65470;47.324;8.548;2023-04-19T02:29:43;11.70;99.90
32811;DHT22;65470;47.324;8.548;2023-04-19T02:32:10;11.70;99.90
32811;DHT22;65470;47.324;8.548;2023-04-19T02:34:36;11.70;99.90
32811;DHT22;65470;47.324;8.548;2023-04-19T02:37:02;11.70;99.90
32811;DHT22;65470;47.324;8.548;2023-04-19T02:39:28;11.70;99.90
32811;DHT22;65470;47.324;8.548;2023-04-19T02:41:55;11.70;99.90
32811;DHT22;65470;47.324;8.548;2023-04-19T02:44:21;11.70;99.90
32811;DHT22;65470;47.324;8.548;2023-04-19T02:46:50;11.80;99.90
32811;DHT22;65470;47.324;8.548;2023-04-19T02:49:17;11.80;99.90
32811;DHT22;65470;47.324;8.548;2023-04-19T02:51:43;11.80;99.90
32811;DHT22;65470;47.324;8.548;2023-04-19T02:54:10;11.80;99.90
32811;DHT22;65470;47.324;8.548;2023-04-19T02:56:35;11.80;99.90
32811;DHT22;65470;47.324;8.548;2023-04-19T02:59:03;11.90;99.90
32811;DHT22;65470;47.324;8.548;2023-04-19T03:01:29;11.90;99.90
32811;DHT22;65470;47.324;8.548;2023-04-19T03:03:55;11.90;99.90
32811;DHT22;65470;47.324;8.548;2023-04-19T03:06:21;11.90;99.90
32811;DHT22;65470;47.324;8.548;2023-04-19T03:08:46;11.90;99.90
32811;DHT22;65470;47.324;8.548;2023-04-19T03:11:16;11.80;99.90
32811;DHT22;65470;47.324;8.548;2023-04-19T03:13:42;11.70;99.90
32811;DHT22;65470;47.324;8.548;2023-04-19T03:16:08;11.70;99.90
32811;DHT22;65470;47.324;8.548;2023-04-19T03:18:34;11.70;99.90
32811;DHT22;65470;47.324;8.548;2023-04-19T03:21:01;11.70;99.90
32811;DHT22;65470;47.324;8.548;2023-04-19T03:23:27;11.70;99.90
32811;DHT22;65470;47.324;8.548;2023-04-19T03:25:53;11.70;99.90
32811;DHT22;65470;47.324;8.548;2023-04-19T03:28:18;11.70;99.90
32811;DHT22;65470;47.324;8.548;2023-04-19T03:30:44;11.70;99.90
32811;DHT22;65470;47.324;8.548;2023-04-19T03:33:10;11.70;99.90
32811;DHT22;65470;47.324;8.548;2023-04-19T03:35:36;11.70;99.90
32811;DHT22;65470;47.324;8.548;2023-04-19T03:38:01;11.70;99.90
32811;DHT22;65470;47.324;8.548;2023-04-19T03:40:27;11.70;99.90
32811;DHT22;65470;47.324;8.548;2023-04-19T03:42:53;11.70;99.90
32811;DHT22;65470;47.324;8.548;2023-04-19T03:45:19;11.70;99.90
32811;DHT22;65470;47.324;8.548;2023-04-19T03:47:44;11.70;99.90
32811;DHT22;65470;47.324;8.548;2023-04-19T03:50:10;11.70;99.90
32811;DHT22;65470;47.324;8.548;2023-04-19T03:52:37;11.70;99.90
32811;DHT22;65470;47.324;8.548;2023-04-19T03:55:03;11.70;99.90
32811;DHT22;65470;47.324;8.548;2023-04-19T03:57:28;11.70;99.90
32811;DHT22;65470;47.324;8.548;2023-04-19T03:59:54;11.70;99.90
32811;DHT22;65470;47.324;8.548;2023-04-19T04:02:19;11.70;99.90
32811;DHT22;65470;47.324;8.548;2023-04-19T04:04:45;11.70;99.90
32811;DHT22;65470;47.324;8.548;2023-04-19T04:07:11;11.70;99.90
32811;DHT22;65470;47.324;8.548;2023-04-19T04:09:36;11.70;99.90
32811;DHT22;65470;47.324;8.548;2023-04-19T04:12:02;11.70;99.90
32811;DHT22;65470;47.324;8.548;2023-04-19T04:14:27;11.60;99.90
32811;DHT22;65470;47.324;8.548;2023-04-19T04:16:53;11.60;99.90
32811;DHT22;65470;47.324;8.548;2023-04-19T04:19:19;11.60;99.90
32811;DHT22;65470;47.324;8.548;2023-04-19T04:21:46;11.70;99.90
32811;DHT22;65470;47.324;8.548;2023-04-19T04:24:12;11.60;99.90
32811;DHT22;65470;47.324;8.548;2023-04-19T04:26:38;11.60;99.90
32811;DHT22;65470;47.324;8.548;2023-04-19T04:29:04;11.60;99.90
32811;DHT22;65470;47.324;8.548;2023-04-19T04:31:30;11.70;99.90
32811;DHT22;65470;47.324;8.548;2023-04-19T04:33:56;11.60;99.90
32811;DHT22;65470;47.324;8.548;2023-04-19T04:36:22;11.60;99.90
32811;DHT22;65470;47.324;8.548;2023-04-19T04:38:47;11.60;99.90
32811;DHT22;65470;47.324;8.548;2023-04-19T04:41:13;11.60;99.90
32811;DHT22;65470;47.324;8.548;2023-04-19T04:43:39;11.60;99.90
32811;DHT22;65470;47.324;8.548;2023-04-19T04:46:05;11.60;99.90
32811;DHT22;65470;47.324;8.548;2023-04-19T04:48:30;11.70;99.90
32811;DHT22;65470;47.324;8.548;2023-04-19T04:50:56;11.70;99.90
32811;DHT22;65470;47.324;8.548;2023-04-19T04:53:25;11.80;99.90
32811;DHT22;65470;47.324;8.548;2023-04-19T04:55:52;11.80;99.90
32811;DHT22;65470;47.324;8.548;2023-04-19T04:58:18;11.80;99.90
32811;DHT22;65470;47.324;8.548;2023-04-19T05:00:44;11.80;99.90
32811;DHT22;65470;47.324;8.548;2023-04-19T05:03:10;11.80;99.90
32811;DHT22;65470;47.324;8.548;2023-04-19T05:05:35;11.80;99.90
32811;DHT22;65470;47.324;8.548;2023-04-19T05:08:01;11.90;99.90
32811;DHT22;65470;47.324;8.548;2023-04-19T05:10:26;11.90;99.90
32811;DHT22;65470;47.324;8.548;2023-04-19T05:12:52;11.90;99.90
32811;DHT22;65470;47.324;8.548;2023-04-19T05:15:18;12.00;99.90
32811;DHT22;65470;47.324;8.548;2023-04-19T05:17:43;12.00;99.90
32811;DHT22;65470;47.324;8.548;2023-04-19T05:20:09;11.90;99.90
32811;DHT22;65470;47.324;8.548;2023-04-19T05:22:35;12.00;99.90
32811;DHT22;65470;47.324;8.548;2023-04-19T05:25:01;12.00;99.90
32811;DHT22;65470;47.324;8.548;2023-04-19T05:27:26;12.00;99.90
32811;DHT22;65470;47.324;8.548;2023-04-19T05:29:52;12.00;99.90
32811;DHT22;65470;47.324;8.548;2023-04-19T05:32:18;11.90;99.90
32811;DHT22;65470;47.324;8.548;2023-04-19T05:34:43;11.90;99.90
32811;DHT22;65470;47.324;8.548;2023-04-19T05:37:09;11.90;99.90
32811;DHT22;65470;47.324;8.548;2023-04-19T05:39:35;11.90;99.90
32811;DHT22;65470;47.324;8.548;2023-04-19T05:42:00;11.90;99.90
32811;DHT22;65470;47.324;8.548;2023-04-19T05:44:26;11.90;99.90
32811;DHT22;65470;47.324;8.548;2023-04-19T05:46:51;12.00;99.90
32811;DHT22;65470;47.324;8.548;2023-04-19T05:49:17;12.00;99.90
32811;DHT22;65470;47.324;8.548;2023-04-19T05:51:43;12.00;99.90
32811;DHT22;65470;47.324;8.548;2023-04-19T05:54:08;12.00;99.90
32811;DHT22;65470;47.324;8.548;2023-04-19T05:56:37;12.10;99.90
32811;DHT22;65470;47.324;8.548;2023-04-19T05:59:03;12.10;99.90
32811;DHT22;65470;47.324;8.548;2023-04-19T06:01:29;12.10;99.90
32811;DHT22;65470;47.324;8.548;2023-04-19T06:03:55;12.20;99.90
32811;DHT22;65470;47.324;8.548;2023-04-19T06:06:21;12.20;99.90
32811;DHT22;65470;47.324;8.548;2023-04-19T06:08:47;12.20;99.90
32811;DHT22;65470;47.324;8.548;2023-04-19T06:11:13;12.20;99.90
32811;DHT22;65470;47.324;8.548;2023-04-19T06:13:39;12.20;99.90
32811;DHT22;65470;47.324;8.548;2023-04-19T06:16:05;12.20;99.90
32811;DHT22;65470;47.324;8.548;2023-04-19T06:18:30;12.30;99.90
32811;DHT22;65470;47.324;8.548;2023-04-19T06:20:56;12.30;99.90
32811;DHT22;65470;47.324;8.548;2023-04-19T06:23:21;12.30;99.90
32811;DHT22;65470;47.324;8.548;2023-04-19T06:25:48;12.30;99.90
32811;DHT22;65470;47.324;8.548;2023-04-19T06:28:13;12.30;99.90
32811;DHT22;65470;47.324;8.548;2023-04-19T06:30:39;12.30;99.90
32811;DHT22;65470;47.324;8.548;2023-04-19T06:33:05;12.30;99.90
32811;DHT22;65470;47.324;8.548;2023-04-19T06:35:31;12.30;99.90
32811;DHT22;65470;47.324;8.548;2023-04-19T06:37:58;12.30;99.90
32811;DHT22;65470;47.324;8.548;2023-04-19T06:40:25;12.20;99.90
32811;DHT22;65470;47.324;8.548;2023-04-19T06:42:51;12.20;99.90
32811;DHT22;65470;47.324;8.548;2023-04-19T06:45:17;12.20;99.90
32811;DHT22;65470;47.324;8.548;2023-04-19T06:47:43;12.30;99.90
32811;DHT22;65470;47.324;8.548;2023-04-19T06:50:09;12.30;99.90
32811;DHT22;65470;47.324;8.548;2023-04-19T06:52:35;12.40;99.90
32811;DHT22;65470;47.324;8.548;2023-04-19T06:55:01;12.40;99.90
32811;DHT22;65470;47.324;8.548;2023-04-19T06:57:26;12.50;99.90
32811;DHT22;65470;47.324;8.548;2023-04-19T06:59:54;12.50;99.90
32811;DHT22;65470;47.324;8.548;2023-04-19T07:02:19;12.50;99.90
32811;DHT22;65470;47.324;8.548;2023-04-19T07:04:45;12.70;99.90
32811;DHT22;65470;47.324;8.548;2023-04-19T07:07:12;12.70;99.90
32811;DHT22;65470;47.324;8.548;2023-04-19T07:09:38;12.70;99.90
32811;DHT22;65470;47.324;8.548;2023-04-19T07:12:05;12.80;99.90
32811;DHT22;65470;47.324;8.548;2023-04-19T07:14:30;12.90;99.90
32811;DHT22;65470;47.324;8.548;2023-04-19T07:16:56;13.00;99.90
32811;DHT22;65470;47.324;8.548;2023-04-19T07:19:22;13.00;99.90
32811;DHT22;65470;47.324;8.548;2023-04-19T07:21:49;13.10;99.90
32811;DHT22;65470;47.324;8.548;2023-04-19T07:24:15;13.10;99.90
32811;DHT22;65470;47.324;8.548;2023-04-19T07:26:40;13.20;99.90
32811;DHT22;65470;47.324;8.548;2023-04-19T07:29:06;13.20;99.90
32811;DHT22;65470;47.324;8.548;2023-04-19T07:31:32;13.20;99.90
32811;DHT22;65470;47.324;8.548;2023-04-19T07:33:57;13.30;99.90
32811;DHT22;65470;47.324;8.548;2023-04-19T07:36:23;13.40;99.90
32811;DHT22;65470;47.324;8.548;2023-04-19T07:38:48;13.50;99.90
32811;DHT22;65470;47.324;8.548;2023-04-19T07:41:14;13.60;99.90
32811;DHT22;65470;47.324;8.548;2023-04-19T07:43:40;13.60;99.90
32811;DHT22;65470;47.324;8.548;2023-04-19T07:46:10;13.70;99.90
32811;DHT22;65470;47.324;8.548;2023-04-19T07:48:36;13.80;99.90
32811;DHT22;65470;47.324;8.548;2023-04-19T07:51:13;13.80;99.90
32811;DHT22;65470;47.324;8.548;2023-04-19T07:53:40;13.80;99.90
32811;DHT22;65470;47.324;8.548;2023-04-19T07:56:09;13.80;99.90
32811;DHT22;65470;47.324;8.548;2023-04-19T07:58:36;13.80;99.90
32811;DHT22;65470;47.324;8.548;2023-04-19T08:01:02;13.70;99.90
32811;DHT22;65470;47.324;8.548;2023-04-19T08:03:29;13.70;99.90
32811;DHT22;65470;47.324;8.548;2023-04-19T08:05:55;13.60;99.90
32811;DHT22;65470;47.324;8.548;2023-04-19T08:08:20;13.60;99.90
32811;DHT22;65470;47.324;8.548;2023-04-19T08:10:46;13.60;99.90
32811;DHT22;65470;47.324;8.548;2023-04-19T08:13:12;13.60;99.90
32811;DHT22;65470;47.324;8.548;2023-04-19T08:15:37;13.60;99.90
32811;DHT22;65470;47.324;8.548;2023-04-19T08:18:03;13.60;99.90
32811;DHT22;65470;47.324;8.548;2023-04-19T08:20:32;13.50;99.90
32811;DHT22;65470;47.324;8.548;2023-04-19T08:22:59;13.50;99.90
32811;DHT22;65470;47.324;8.548;2023-04-19T08:25:24;13.50;99.90
32811;DHT22;65470;47.324;8.548;2023-04-19T08:27:56;13.50;99.90
32811;DHT22;65470;47.324;8.548;2023-04-19T08:30:23;13.40;99.90
32811;DHT22;65470;47.324;8.548;2023-04-19T08:32:49;13.40;99.90
32811;DHT22;65470;47.324;8.548;2023-04-19T08:35:15;13.40;99.90
32811;DHT22;65470;47.324;8.548;2023-04-19T08:37:41;13.40;99.90
32811;DHT22;65470;47.324;8.548;2023-04-19T08:40:07;13.40;99.90
32811;DHT22;65470;47.324;8.548;2023-04-19T08:42:33;13.40;99.90
32811;DHT22;65470;47.324;8.548;2023-04-19T08:45:02;13.50;99.90
32811;DHT22;65470;47.324;8.548;2023-04-19T08:47:34;13.50;99.90
32811;DHT22;65470;47.324;8.548;2023-04-19T08:50:02;13.40;99.90
32811;DHT22;65470;47.324;8.548;2023-04-19T08:52:29;13.30;99.90
32811;DHT22;65470;47.324;8.548;2023-04-19T08:54:55;13.40;99.90
32811;DHT22;65470;47.324;8.548;2023-04-19T08:57:21;13.40;99.90
32811;DHT22;65470;47.324;8.548;2023-04-19T08:59:47;13.50;99.90
32811;DHT22;65470;47.324;8.548;2023-04-19T09:02:16;13.50;99.90
32811;DHT22;65470;47.324;8.548;2023-04-19T09:04:42;13.60;99.90
32811;DHT22;65470;47.324;8.548;2023-04-19T09:07:07;13.60;99.90
32811;DHT22;65470;47.324;8.548;2023-04-19T09:09:33;13.60;99.90
32811;DHT22;65470;47.324;8.548;2023-04-19T09:12:00;13.60;99.90
32811;DHT22;65470;47.324;8.548;2023-04-19T09:14:27;13.60;99.90
32811;DHT22;65470;47.324;8.548;2023-04-19T09:16:53;13.60;99.90
32811;DHT22;65470;47.324;8.548;2023-04-19T09:19:45;13.60;99.90
32811;DHT22;65470;47.324;8.548;2023-04-19T09:22:12;13.70;99.90
32811;DHT22;65470;47.324;8.548;2023-04-19T09:24:38;13.80;99.90
32811;DHT22;65470;47.324;8.548;2023-04-19T09:27:04;13.90;99.90
32811;DHT22;65470;47.324;8.548;2023-04-19T09:29:30;14.00;99.90
32811;DHT22;65470;47.324;8.548;2023-04-19T09:31:58;14.00;99.90
32811;DHT22;65470;47.324;8.548;2023-04-19T09:34:24;14.00;99.90
32811;DHT22;65470;47.324;8.548;2023-04-19T09:36:50;14.00;99.90
32811;DHT22;65470;47.324;8.548;2023-04-19T09:39:32;14.00;99.90
32811;DHT22;65470;47.324;8.548;2023-04-19T09:42:00;14.00;99.90
32811;DHT22;65470;47.324;8.548;2023-04-19T09:44:26;14.00;99.90
32811;DHT22;65470;47.324;8.548;2023-04-19T09:46:52;14.00;99.90
32811;DHT22;65470;47.324;8.548;2023-04-19T09:49:23;14.00;99.90
32811;DHT22;65470;47.324;8.548;2023-04-19T09:51:53;14.00;99.90
32811;DHT22;65470;47.324;8.548;2023-04-19T09:54:22;14.00;99.90
32811;DHT22;65470;47.324;8.548;2023-04-19T09:56:48;14.00;99.90
32811;DHT22;65470;47.324;8.548;2023-04-19T09:59:15;14.00;99.90
32811;DHT22;65470;47.324;8.548;2023-04-19T10:01:45;14.10;99.90
32811;DHT22;65470;47.324;8.548;2023-04-19T10:04:13;14.10;99.90
32811;DHT22;65470;47.324;8.548;2023-04-19T10:06:50;14.20;99.90
32811;DHT22;65470;47.324;8.548;2023-04-19T10:09:21;14.30;99.90
32811;DHT22;65470;47.324;8.548;2023-04-19T10:11:51;14.30;99.90
32811;DHT22;65470;47.324;8.548;2023-04-19T10:14:23;14.40;99.90
32811;DHT22;65470;47.324;8.548;2023-04-19T10:16:49;14.40;99.90
32811;DHT22;65470;47.324;8.548;2023-04-19T10:19:19;14.50;99.90
32811;DHT22;65470;47.324;8.548;2023-04-19T10:21:47;14.60;99.90
32811;DHT22;65470;47.324;8.548;2023-04-19T10:24:14;14.70;99.90
32811;DHT22;65470;47.324;8.548;2023-04-19T10:32:43;14.90;99.90
32811;DHT22;65470;47.324;8.548;2023-04-19T10:35:09;14.90;99.90
32811;DHT22;65470;47.324;8.548;2023-04-19T10:37:39;15.00;99.90
32811;DHT22;65470;47.324;8.548;2023-04-19T10:40:06;15.00;99.90
32811;DHT22;65470;47.324;8.548;2023-04-19T10:45:36;15.20;99.90
32811;DHT22;65470;47.324;8.548;2023-04-19T10:48:02;15.20;99.90
32811;DHT22;65470;47.324;8.548;2023-04-19T10:50:29;15.20;99.90
32811;DHT22;65470;47.324;8.548;2023-04-19T10:52:54;15.30;99.90
32811;DHT22;65470;47.324;8.548;2023-04-19T10:55:20;15.40;99.90
32811;DHT22;65470;47.324;8.548;2023-04-19T10:58:05;15.50;99.90
32811;DHT22;65470;47.324;8.548;2023-04-19T11:00:31;15.70;99.90
32811;DHT22;65470;47.324;8.548;2023-04-19T11:06:16;15.70;99.90
32811;DHT22;65470;47.324;8.548;2023-04-19T11:08:44;15.70;99.90
32811;DHT22;65470;47.324;8.548;2023-04-19T11:11:09;15.80;99.90
32811;DHT22;65470;47.324;8.548;2023-04-19T11:13:36;15.80;99.90
32811;DHT22;65470;47.324;8.548;2023-04-19T11:16:07;15.80;99.90
32811;DHT22;65470;47.324;8.548;2023-04-19T11:18:33;15.90;99.90
32811;DHT22;65470;47.324;8.548;2023-04-19T11:20:59;16.00;99.90
32811;DHT22;65470;47.324;8.548;2023-04-19T11:23:25;16.00;99.90
32811;DHT22;65470;47.324;8.548;2023-04-19T11:25:52;16.00;99.90
32811;DHT22;65470;47.324;8.548;2023-04-19T11:28:18;16.10;99.90
32811;DHT22;65470;47.324;8.548;2023-04-19T11:30:46;16.20;99.90
32811;DHT22;65470;47.324;8.548;2023-04-19T11:33:12;16.10;99.90
32811;DHT22;65470;47.324;8.548;2023-04-19T11:35:38;16.20;99.90
32811;DHT22;65470;47.324;8.548;2023-04-19T11:38:04;16.20;99.90
32811;DHT22;65470;47.324;8.548;2023-04-19T11:40:30;16.20;99.90
32811;DHT22;65470;47.324;8.548;2023-04-19T11:43:01;16.30;99.90
32811;DHT22;65470;47.324;8.548;2023-04-19T11:45:32;16.50;99.90
32811;DHT22;65470;47.324;8.548;2023-04-19T11:47:59;16.70;99.90
32811;DHT22;65470;47.324;8.548;2023-04-19T11:50:38;16.90;99.90
32811;DHT22;65470;47.324;8.548;2023-04-19T11:53:20;17.00;99.90
32811;DHT22;65470;47.324;8.548;2023-04-19T11:55:51;17.10;99.90
32811;DHT22;65470;47.324;8.548;2023-04-19T11:58:38;17.20;99.90
32811;DHT22;65470;47.324;8.548;2023-04-19T12:01:09;17.40;99.90
32811;DHT22;65470;47.324;8.548;2023-04-19T12:03:45;17.40;99.90
32811;DHT22;65470;47.324;8.548;2023-04-19T12:06:16;17.50;99.90
32811;DHT22;65470;47.324;8.548;2023-04-19T12:08:47;17.60;99.90
32811;DHT22;65470;47.324;8.548;2023-04-19T12:11:14;17.60;99.90
32811;DHT22;65470;47.324;8.548;2023-04-19T12:13:40;17.70;99.70
32811;DHT22;65470;47.324;8.548;2023-04-19T12:16:09;17.80;99.90
32811;DHT22;65470;47.324;8.548;2023-04-19T12:18:55;17.70;98.30
32811;DHT22;65470;47.324;8.548;2023-04-19T12:21:30;17.70;97.60
32811;DHT22;65470;47.324;8.548;2023-04-19T12:23:58;17.70;98.50
32811;DHT22;65470;47.324;8.548;2023-04-19T12:26:28;17.70;97.70
32811;DHT22;65470;47.324;8.548;2023-04-19T12:28:54;17.90;97.20
32811;DHT22;65470;47.324;8.548;2023-04-19T12:31:20;18.00;97.10
32811;DHT22;65470;47.324;8.548;2023-04-19T12:33:47;18.00;97.20
32811;DHT22;65470;47.324;8.548;2023-04-19T12:36:13;18.20;96.50
32811;DHT22;65470;47.324;8.548;2023-04-19T12:38:39;18.20;94.90
32811;DHT22;65470;47.324;8.548;2023-04-19T12:41:05;18.20;95.10
32811;DHT22;65470;47.324;8.548;2023-04-19T12:43:31;18.10;95.30
32811;DHT22;65470;47.324;8.548;2023-04-19T12:45:57;18.00;95.20
32811;DHT22;65470;47.324;8.548;2023-04-19T12:48:23;18.00;95.60
32811;DHT22;65470;47.324;8.548;2023-04-19T12:50:49;18.10;96.20
32811;DHT22;65470;47.324;8.548;2023-04-19T12:53:15;18.20;96.60
32811;DHT22;65470;47.324;8.548;2023-04-19T12:55:40;18.30;94.60
32811;DHT22;65470;47.324;8.548;2023-04-19T12:58:06;18.30;95.30
32811;DHT22;65470;47.324;8.548;2023-04-19T13:00:32;18.40;94.20
32811;DHT22;65470;47.324;8.548;2023-04-19T13:02:57;18.40;93.80
32811;DHT22;65470;47.324;8.548;2023-04-19T13:05:23;18.50;93.90
32811;DHT22;65470;47.324;8.548;2023-04-19T13:07:49;18.70;93.90
32811;DHT22;65470;47.324;8.548;2023-04-19T13:10:14;18.80;93.30
32811;DHT22;65470;47.324;8.548;2023-04-19T13:12:40;18.80;92.80
32811;DHT22;65470;47.324;8.548;2023-04-19T13:15:06;18.70;93.20
32811;DHT22;65470;47.324;8.548;2023-04-19T13:17:32;18.80;91.90
32811;DHT22;65470;47.324;8.548;2023-04-19T13:19:59;18.70;91.90
32811;DHT22;65470;47.324;8.548;2023-04-19T13:22:25;18.70;92.20
32811;DHT22;65470;47.324;8.548;2023-04-19T13:24:51;18.70;92.00
32811;DHT22;65470;47.324;8.548;2023-04-19T13:27:16;18.60;91.80
32811;DHT22;65470;47.324;8.548;2023-04-19T13:29:42;18.40;92.50
32811;DHT22;65470;47.324;8.548;2023-04-19T13:32:07;18.00;93.70
32811;DHT22;65470;47.324;8.548;2023-04-19T13:34:37;18.00;93.80
32811;DHT22;65470;47.324;8.548;2023-04-19T13:37:03;17.80;94.20
32811;DHT22;65470;47.324;8.548;2023-04-19T13:39:29;17.60;94.50
32811;DHT22;65470;47.324;8.548;2023-04-19T13:41:55;17.30;95.70
32811;DHT22;65470;47.324;8.548;2023-04-19T13:44:21;17.20;95.50
32811;DHT22;65470;47.324;8.548;2023-04-19T13:46:46;17.00;95.80
32811;DHT22;65470;47.324;8.548;2023-04-19T13:49:12;16.90;96.70
32811;DHT22;65470;47.324;8.548;2023-04-19T13:51:37;16.80;97.00
32811;DHT22;65470;47.324;8.548;2023-04-19T13:54:03;16.70;97.70
32811;DHT22;65470;47.324;8.548;2023-04-19T13:56:29;16.60;98.40
32811;DHT22;65470;47.324;8.548;2023-04-19T13:58:55;16.60;98.00
32811;DHT22;65470;47.324;8.548;2023-04-19T14:01:20;16.60;98.20
32811;DHT22;65470;47.324;8.548;2023-04-19T14:03:46;16.60;98.70
32811;DHT22;65470;47.324;8.548;2023-04-19T14:06:11;16.40;99.40
32811;DHT22;65470;47.324;8.548;2023-04-19T14:08:37;16.40;99.10
32811;DHT22;65470;47.324;8.548;2023-04-19T14:11:03;16.30;99.90
32811;DHT22;65470;47.324;8.548;2023-04-19T14:13:28;16.40;99.60
32811;DHT22;65470;47.324;8.548;2023-04-19T14:15:54;16.40;99.00
32811;DHT22;65470;47.324;8.548;2023-04-19T14:18:20;16.50;99.40
32811;DHT22;65470;47.324;8.548;2023-04-19T14:20:45;16.60;99.90
32811;DHT22;65470;47.324;8.548;2023-04-19T14:23:11;16.70;99.70
32811;DHT22;65470;47.324;8.548;2023-04-19T14:25:37;16.80;98.60
32811;DHT22;65470;47.324;8.548;2023-04-19T14:28:03;16.70;99.50
32811;DHT22;65470;47.324;8.548;2023-04-19T14:30:28;16.80;98.70
32811;DHT22;65470;47.324;8.548;2023-04-19T14:32:54;17.00;98.20
32811;DHT22;65470;47.324;8.548;2023-04-19T14:35:20;17.10;98.70
32811;DHT22;65470;47.324;8.548;2023-04-19T14:37:45;17.20;97.70
32811;DHT22;65470;47.324;8.548;2023-04-19T14:40:11;17.40;97.10
32811;DHT22;65470;47.324;8.548;2023-04-19T14:42:37;17.60;96.00
32811;DHT22;65470;47.324;8.548;2023-04-19T14:45:03;17.70;95.50
32811;DHT22;65470;47.324;8.548;2023-04-19T14:47:28;17.70;94.90
32811;DHT22;65470;47.324;8.548;2023-04-19T14:49:55;17.70;94.30
32811;DHT22;65470;47.324;8.548;2023-04-19T14:52:20;17.70;94.70
32811;DHT22;65470;47.324;8.548;2023-04-19T14:54:46;17.70;95.20
32811;DHT22;65470;47.324;8.548;2023-04-19T14:57:12;17.80;93.90
32811;DHT22;65470;47.324;8.548;2023-04-19T14:59:38;17.70;94.00
32811;DHT22;65470;47.324;8.548;2023-04-19T15:02:04;17.80;94.60
32811;DHT22;65470;47.324;8.548;2023-04-19T15:04:33;17.90;93.80
32811;DHT22;65470;47.324;8.548;2023-04-19T15:06:59;17.90;94.10
32811;DHT22;65470;47.324;8.548;2023-04-19T15:09:25;17.90;93.40
32811;DHT22;65470;47.324;8.548;2023-04-19T15:11:50;17.80;93.30
32811;DHT22;65470;47.324;8.548;2023-04-19T15:14:16;17.90;93.60
32811;DHT22;65470;47.324;8.548;2023-04-19T15:16:42;17.80;93.40
32811;DHT22;65470;47.324;8.548;2023-04-19T15:19:07;17.80;93.30
32811;DHT22;65470;47.324;8.548;2023-04-19T15:21:33;17.90;93.30
32811;DHT22;65470;47.324;8.548;2023-04-19T15:23:59;17.90;93.30
32811;DHT22;65470;47.324;8.548;2023-04-19T15:26:25;17.80;93.00
32811;DHT22;65470;47.324;8.548;2023-04-19T15:28:51;17.70;92.80
32811;DHT22;65470;47.324;8.548;2023-04-19T15:31:16;17.60;93.60
32811;DHT22;65470;47.324;8.548;2023-04-19T15:33:42;17.60;93.60
32811;DHT22;65470;47.324;8.548;2023-04-19T15:36:08;17.60;93.40
32811;DHT22;65470;47.324;8.548;2023-04-19T15:38:33;17.80;93.20